createdAt,value
2022-08-21T00:00:24.977Z,7.20
2022-08-21T00:01:24.977Z,8.50
2022-08-21T00:02:25.043Z,8.30
2022-08-21T00:03:24.978Z,8.30
2022-08-21T00:04:30.137Z,8.40
2022-08-21T00:05:24.942Z,8.40
2022-08-21T00:06:24.935Z,8.30
2022-08-21T00:07:25.251Z,8.10
2022-08-21T00:08:24.927Z,7.50
2022-08-21T00:09:24.944Z,7.40
2022-08-21T00:10:24.910Z,7.20
2022-08-21T00:11:24.905Z,7.90
2022-08-21T00:12:24.905Z,9.00
2022-08-21T00:13:24.891Z,8.70
2022-08-21T00:14:24.899Z,9.20
2022-08-21T00:15:24.888Z,8.60
2022-08-21T00:16:24.874Z,8.60
2022-08-21T00:17:24.868Z,9.20
2022-08-21T00:18:24.857Z,10.00
2022-08-21T00:19:24.851Z,10.40
2022-08-21T00:20:24.850Z,11.80
2022-08-21T00:21:24.830Z,10.10
2022-08-21T00:22:24.823Z,8.90
2022-08-21T00:23:24.828Z,9.00
2022-08-21T00:24:24.810Z,9.00
2022-08-21T00:25:25.899Z,9.00
2022-08-21T00:26:24.802Z,8.70
2022-08-21T00:27:24.794Z,7.70
2022-08-21T00:28:24.787Z,8.40
2022-08-21T00:29:24.774Z,8.20
2022-08-21T00:30:24.795Z,8.10
2022-08-21T00:31:24.770Z,8.20
2022-08-21T00:32:24.773Z,9.00
2022-08-21T00:33:24.757Z,10.20
2022-08-21T00:34:24.738Z,10.40
2022-08-21T00:35:24.743Z,10.30
2022-08-21T00:36:24.734Z,11.00
2022-08-21T00:37:24.741Z,11.00
2022-08-21T00:38:24.720Z,11.20
2022-08-21T00:39:24.710Z,10.70
2022-08-21T00:40:24.697Z,9.10
2022-08-21T00:41:38.482Z,10.80
2022-08-21T00:42:25.710Z,9.70
2022-08-21T00:43:24.681Z,9.60
2022-08-21T00:44:24.675Z,9.80
2022-08-21T00:45:24.670Z,9.90
2022-08-21T00:46:28.278Z,9.30
2022-08-21T00:47:24.664Z,9.30
2022-08-21T00:48:24.647Z,10.10
2022-08-21T00:49:24.638Z,9.80
2022-08-21T00:50:24.627Z,9.10
2022-08-21T00:51:24.621Z,9.90
2022-08-21T00:52:24.653Z,9.40
2022-08-21T00:53:24.611Z,9.30
2022-08-21T00:54:24.608Z,9.10
2022-08-21T00:55:24.602Z,9.30
2022-08-21T00:56:24.598Z,8.80
2022-08-21T00:57:24.582Z,9.30
2022-08-21T00:58:24.647Z,9.80
2022-08-21T00:59:24.566Z,9.70
2022-08-21T01:00:24.560Z,10.70
2022-08-21T01:01:24.582Z,11.00
2022-08-21T01:02:24.548Z,10.70
2022-08-21T01:03:24.598Z,11.70
2022-08-21T01:04:24.540Z,11.30
2022-08-21T01:05:24.531Z,11.60
2022-08-21T01:06:24.519Z,11.80
2022-08-21T01:07:24.507Z,11.40
2022-08-21T01:08:24.518Z,10.20
2022-08-21T01:09:24.500Z,9.70
2022-08-21T01:10:24.733Z,10.30
2022-08-21T01:11:24.479Z,11.00
2022-08-21T01:12:24.478Z,10.20
2022-08-21T01:13:24.485Z,10.00
2022-08-21T01:14:24.447Z,10.40
2022-08-21T01:15:25.456Z,10.90
2022-08-21T01:16:24.450Z,11.40
2022-08-21T01:17:24.443Z,10.90
2022-08-21T01:18:24.447Z,10.30
2022-08-21T01:19:24.436Z,10.70
2022-08-21T01:20:32.867Z,10.50
2022-08-21T01:21:28.264Z,10.30
2022-08-21T01:22:24.411Z,10.40
2022-08-21T01:23:24.415Z,10.10
2022-08-21T01:24:24.393Z,11.00
2022-08-21T01:25:24.382Z,10.50
2022-08-21T01:26:24.379Z,10.40
2022-08-21T01:27:25.373Z,9.60
2022-08-21T01:28:24.375Z,10.40
2022-08-21T01:29:24.383Z,9.80
2022-08-21T01:30:24.347Z,10.10
2022-08-21T01:31:24.798Z,10.60
2022-08-21T01:32:24.343Z,10.20
2022-08-21T01:33:24.367Z,10.40
2022-08-21T01:34:24.327Z,9.90
2022-08-21T01:35:24.321Z,11.00
2022-08-21T01:36:24.304Z,9.90
2022-08-21T01:37:24.303Z,10.10
2022-08-21T01:38:24.303Z,9.60
2022-08-21T01:39:24.275Z,10.30
2022-08-21T01:40:24.347Z,10.60
2022-08-21T01:41:24.271Z,10.90
2022-08-21T01:42:24.268Z,10.80
2022-08-21T01:43:32.707Z,10.90
2022-08-21T01:44:25.249Z,10.80
2022-08-21T01:45:24.235Z,9.70
2022-08-21T01:46:24.219Z,10.90
2022-08-21T01:47:24.227Z,10.50
2022-08-21T01:48:24.211Z,10.50
2022-08-21T01:49:24.219Z,10.30
2022-08-21T01:50:24.206Z,10.50
2022-08-21T01:51:24.183Z,9.90
2022-08-21T01:52:24.193Z,9.40
2022-08-21T01:53:33.360Z,8.90
2022-08-21T01:54:25.180Z,9.50
2022-08-21T01:55:24.167Z,9.70
2022-08-21T01:56:24.156Z,9.90
2022-08-21T01:57:26.326Z,10.20
2022-08-21T01:58:24.146Z,10.90
2022-08-21T01:59:24.135Z,10.10
2022-08-21T02:00:24.118Z,8.90
2022-08-21T02:01:24.152Z,9.20
2022-08-21T02:02:24.106Z,10.30
2022-08-21T02:03:26.249Z,11.10
2022-08-21T02:04:25.111Z,10.40
2022-08-21T02:05:24.091Z,9.70
2022-08-21T02:06:24.095Z,9.80
2022-08-21T02:07:24.079Z,10.10
2022-08-21T02:08:24.067Z,10.10
2022-08-21T02:09:24.399Z,8.80
2022-08-21T02:10:24.055Z,9.60
2022-08-21T02:11:24.039Z,9.70
2022-08-21T02:12:24.047Z,9.60
2022-08-21T02:13:24.023Z,10.60
2022-08-21T02:14:32.779Z,10.90
2022-08-21T02:15:25.016Z,9.40
2022-08-21T02:16:24.003Z,9.70
2022-08-21T02:17:24.018Z,9.40
2022-08-21T02:18:23.995Z,9.60
2022-08-21T02:19:23.991Z,9.50
2022-08-21T02:20:23.983Z,8.80
2022-08-21T02:21:23.967Z,10.10
2022-08-21T02:22:23.982Z,9.60
2022-08-21T02:23:27.085Z,9.70
2022-08-21T02:24:23.947Z,9.70
2022-08-21T02:25:23.957Z,9.70
2022-08-21T02:26:23.935Z,11.00
2022-08-21T02:27:26.302Z,10.40
2022-08-21T02:28:23.939Z,10.40
2022-08-21T02:29:23.919Z,10.60
2022-08-21T02:30:23.898Z,10.80
2022-08-21T02:31:23.904Z,10.60
2022-08-21T02:32:24.035Z,10.30
2022-08-21T02:33:23.889Z,10.80
2022-08-21T02:34:23.887Z,11.70
2022-08-21T02:35:24.874Z,10.80
2022-08-21T02:36:23.854Z,10.50
2022-08-21T02:37:23.855Z,11.00
2022-08-21T02:38:23.875Z,12.10
2022-08-21T02:39:27.140Z,11.00
2022-08-21T02:40:23.835Z,11.40
2022-08-21T02:41:23.838Z,11.30
2022-08-21T02:42:23.833Z,10.80
2022-08-21T02:43:23.822Z,11.30
2022-08-21T02:44:33.537Z,10.90
2022-08-21T02:45:24.804Z,11.40
2022-08-21T02:46:23.798Z,11.50
2022-08-21T02:47:23.802Z,10.30
2022-08-21T02:48:23.807Z,11.80
2022-08-21T02:49:23.787Z,11.30
2022-08-21T02:50:23.780Z,11.00
2022-08-21T02:51:23.761Z,11.60
2022-08-21T02:52:23.759Z,12.40
2022-08-21T02:53:23.770Z,12.10
2022-08-21T02:54:23.751Z,12.10
2022-08-21T02:55:23.747Z,11.80
2022-08-21T02:56:23.742Z,10.60
2022-08-21T02:57:23.731Z,11.70
2022-08-21T02:58:23.722Z,11.30
2022-08-21T02:59:23.723Z,11.60
2022-08-21T03:00:23.714Z,11.30
2022-08-21T03:01:23.737Z,11.70
2022-08-21T03:02:23.702Z,12.10
2022-08-21T03:03:23.691Z,10.40
2022-08-21T03:04:23.698Z,9.80
2022-08-21T03:05:23.687Z,9.70
2022-08-21T03:06:23.661Z,10.10
2022-08-21T03:07:23.659Z,9.20
2022-08-21T03:08:24.264Z,8.90
2022-08-21T03:09:23.672Z,10.40
2022-08-21T03:10:23.662Z,9.90
2022-08-21T03:11:23.642Z,9.70
2022-08-21T03:12:23.630Z,9.70
2022-08-21T03:13:23.627Z,9.60
2022-08-21T03:14:23.643Z,9.60
2022-08-21T03:15:23.615Z,9.80
2022-08-21T03:16:23.610Z,9.90
2022-08-21T03:17:29.371Z,8.80
2022-08-21T03:18:24.594Z,10.20
2022-08-21T03:19:23.590Z,9.90
2022-08-21T03:20:23.590Z,10.40
2022-08-21T03:21:23.574Z,9.50
2022-08-21T03:22:23.574Z,9.50
2022-08-21T03:23:23.568Z,10.10
2022-08-21T03:24:23.563Z,9.50
2022-08-21T03:25:27.040Z,10.20
2022-08-21T03:26:24.543Z,10.20
2022-08-21T03:27:23.530Z,11.00
2022-08-21T03:28:23.527Z,10.90
2022-08-21T03:29:23.514Z,11.30
2022-08-21T03:30:23.526Z,11.90
2022-08-21T03:31:23.514Z,11.70
2022-08-21T03:32:23.496Z,12.90
2022-08-21T03:33:23.722Z,11.30
2022-08-21T03:34:23.485Z,10.60
2022-08-21T03:35:23.478Z,10.60
2022-08-21T03:36:23.498Z,9.90
2022-08-21T03:37:23.470Z,10.40
2022-08-21T03:38:26.666Z,11.50
2022-08-21T03:39:24.467Z,12.90
2022-08-21T03:40:23.462Z,14.50
2022-08-21T03:41:23.458Z,13.60
2022-08-21T03:42:23.442Z,15.00
2022-08-21T03:43:23.438Z,13.60
2022-08-21T03:44:23.431Z,12.10
2022-08-21T03:45:23.422Z,12.30
2022-08-21T03:46:23.426Z,14.00
2022-08-21T03:47:23.410Z,15.30
2022-08-21T03:48:23.410Z,14.70
2022-08-21T03:49:23.398Z,15.50
2022-08-21T03:50:23.394Z,15.20
2022-08-21T03:51:23.408Z,14.40
2022-08-21T03:52:23.390Z,15.90
2022-08-21T03:53:23.384Z,15.40
2022-08-21T03:54:23.394Z,15.30
2022-08-21T03:55:23.370Z,15.80
2022-08-21T03:56:23.374Z,15.90
2022-08-21T03:57:23.357Z,16.00
2022-08-21T03:58:23.351Z,15.50
2022-08-21T03:59:23.337Z,15.30
2022-08-21T04:00:23.338Z,17.10
2022-08-21T04:01:23.383Z,17.40
2022-08-21T04:02:23.338Z,17.50
2022-08-21T04:03:23.321Z,18.80
2022-08-21T04:04:23.318Z,17.00
2022-08-21T04:05:23.306Z,17.60
2022-08-21T04:06:23.290Z,18.80
2022-08-21T04:07:23.294Z,18.50
2022-08-21T04:08:23.306Z,19.60
2022-08-21T04:09:23.278Z,19.60
2022-08-21T04:10:23.278Z,17.50
2022-08-21T04:11:23.277Z,18.20
2022-08-21T04:12:23.266Z,19.20
2022-08-21T04:13:23.281Z,19.00
2022-08-21T04:14:23.253Z,17.40
2022-08-21T04:15:23.254Z,17.20
2022-08-21T04:16:23.237Z,17.70
2022-08-21T04:17:23.246Z,17.00
2022-08-21T04:18:23.274Z,16.90
2022-08-21T04:19:23.222Z,14.70
2022-08-21T04:20:23.214Z,16.20
2022-08-21T04:21:24.353Z,17.40
2022-08-21T04:22:23.198Z,18.00
2022-08-21T04:23:24.112Z,17.50
2022-08-21T04:24:23.203Z,17.00
2022-08-21T04:25:23.201Z,19.60
2022-08-21T04:26:23.177Z,19.50
2022-08-21T04:27:23.169Z,21.30
2022-08-21T04:28:23.568Z,20.20
2022-08-21T04:29:24.155Z,21.20
2022-08-21T04:30:28.439Z,21.30
2022-08-21T04:31:23.160Z,20.80
2022-08-21T04:32:23.138Z,21.50
2022-08-21T04:33:23.143Z,22.80
2022-08-21T04:34:23.127Z,21.60
2022-08-21T04:35:23.117Z,16.60
2022-08-21T04:36:23.109Z,17.30
2022-08-21T04:37:23.107Z,16.90
2022-08-21T04:38:23.126Z,18.10
2022-08-21T04:39:23.098Z,17.10
2022-08-21T04:40:24.124Z,17.90
2022-08-21T04:41:28.150Z,17.40
2022-08-21T04:42:24.074Z,16.80
2022-08-21T04:43:23.086Z,17.20
2022-08-21T04:44:23.085Z,15.30
2022-08-21T04:45:23.121Z,15.90
2022-08-21T04:46:23.057Z,16.40
2022-08-21T04:47:23.046Z,16.60
2022-08-21T04:48:24.050Z,16.80
2022-08-21T04:49:23.033Z,17.70
2022-08-21T04:50:23.031Z,17.70
2022-08-21T04:51:23.018Z,18.80
2022-08-21T04:52:23.012Z,19.30
2022-08-21T04:53:23.018Z,21.00
2022-08-21T04:54:23.017Z,20.50
2022-08-21T04:55:22.998Z,20.50
2022-08-21T04:56:22.985Z,18.50
2022-08-21T04:57:22.977Z,19.50
2022-08-21T04:58:23.985Z,19.90
2022-08-21T04:59:22.974Z,20.50
2022-08-21T05:00:22.961Z,26.00
2022-08-21T05:01:22.975Z,35.60
2022-08-21T05:02:22.954Z,94.80
2022-08-21T05:03:22.953Z,99.10
2022-08-21T05:04:22.953Z,65.40
2022-08-21T05:05:22.933Z,44.90
2022-08-21T05:06:22.929Z,29.20
2022-08-21T05:07:41.624Z,26.20
2022-08-21T05:08:23.929Z,22.20
2022-08-21T05:09:22.905Z,19.70
2022-08-21T05:10:22.893Z,22.30
2022-08-21T05:11:22.899Z,19.90
2022-08-21T05:12:22.885Z,20.40
2022-08-21T05:13:22.890Z,19.90
2022-08-21T05:14:22.874Z,21.00
2022-08-21T05:15:22.861Z,23.10
2022-08-21T05:16:36.975Z,23.40
2022-08-21T05:17:23.850Z,22.00
2022-08-21T05:18:22.849Z,21.30
2022-08-21T05:19:22.828Z,21.00
2022-08-21T05:20:22.845Z,20.40
2022-08-21T05:21:22.822Z,21.40
2022-08-21T05:22:22.811Z,24.20
2022-08-21T05:23:22.800Z,34.90
2022-08-21T05:24:22.793Z,35.40
2022-08-21T05:25:23.900Z,41.40
2022-08-21T05:26:22.784Z,35.10
2022-08-21T05:27:22.773Z,40.30
2022-08-21T05:28:22.769Z,35.50
2022-08-21T05:29:22.770Z,28.10
2022-08-21T05:30:22.759Z,26.00
2022-08-21T05:31:22.745Z,26.40
2022-08-21T05:32:22.762Z,25.40
2022-08-21T05:33:22.728Z,23.00
2022-08-21T05:34:22.729Z,23.10
2022-08-21T05:35:22.741Z,24.20
2022-08-21T05:36:22.713Z,26.20
2022-08-21T05:37:22.701Z,30.20
2022-08-21T05:38:22.705Z,28.30
2022-08-21T05:39:22.695Z,27.50
2022-08-21T05:40:23.350Z,28.10
2022-08-21T05:41:23.695Z,30.60
2022-08-21T05:42:22.673Z,27.30
2022-08-21T05:43:22.669Z,26.60
2022-08-21T05:44:22.657Z,26.70
2022-08-21T05:45:41.632Z,24.40
2022-08-21T05:46:23.658Z,22.90
2022-08-21T05:47:22.641Z,23.60
2022-08-21T05:48:22.638Z,21.00
2022-08-21T05:49:22.629Z,22.80
2022-08-21T05:50:22.648Z,22.30
2022-08-21T05:51:22.690Z,21.60
2022-08-21T05:52:22.596Z,18.70
2022-08-21T05:53:22.592Z,17.40
2022-08-21T05:54:22.596Z,18.60
2022-08-21T05:55:22.577Z,18.10
2022-08-21T05:56:22.584Z,16.30
2022-08-21T05:57:22.565Z,17.70
2022-08-21T05:58:22.552Z,16.80
2022-08-21T05:59:22.553Z,15.50
2022-08-21T06:00:22.545Z,12.80
2022-08-21T06:01:22.578Z,12.70
2022-08-21T06:02:22.541Z,12.70
2022-08-21T06:03:22.520Z,12.50
2022-08-21T06:04:22.515Z,14.50
2022-08-21T06:05:33.408Z,14.90
2022-08-21T06:06:23.502Z,15.80
2022-08-21T06:07:23.491Z,18.30
2022-08-21T06:08:22.506Z,15.30
2022-08-21T06:09:22.486Z,21.10
2022-08-21T06:10:22.472Z,19.30
2022-08-21T06:11:25.807Z,19.90
2022-08-21T06:12:24.461Z,15.40
2022-08-21T06:13:22.469Z,15.70
2022-08-21T06:14:22.460Z,18.10
2022-08-21T06:15:22.444Z,17.80
2022-08-21T06:16:22.428Z,15.60
2022-08-21T06:17:22.429Z,15.40
2022-08-21T06:18:22.428Z,14.60
2022-08-21T06:19:22.415Z,14.90
2022-08-21T06:20:22.426Z,13.60
2022-08-21T06:21:22.391Z,14.20
2022-08-21T06:22:22.376Z,14.20
2022-08-21T06:23:22.381Z,13.30
2022-08-21T06:24:23.381Z,12.90
2022-08-21T06:25:22.360Z,12.00
2022-08-21T06:26:22.380Z,12.40
2022-08-21T06:27:26.067Z,13.40
2022-08-21T06:28:23.338Z,11.60
2022-08-21T06:29:22.352Z,11.90
2022-08-21T06:30:22.337Z,11.60
2022-08-21T06:31:22.361Z,11.50
2022-08-21T06:32:22.313Z,12.80
2022-08-21T06:33:22.312Z,13.90
2022-08-21T06:34:22.300Z,13.50
2022-08-21T06:35:22.305Z,13.00
2022-08-21T06:36:22.294Z,13.10
2022-08-21T06:37:22.300Z,13.20
2022-08-21T06:38:22.276Z,13.70
2022-08-21T06:39:25.452Z,12.80
2022-08-21T06:40:23.339Z,13.90
2022-08-21T06:41:23.932Z,13.40
2022-08-21T06:42:22.254Z,12.60
2022-08-21T06:43:23.267Z,12.70
2022-08-21T06:44:23.243Z,13.30
2022-08-21T06:45:22.243Z,13.80
2022-08-21T06:46:22.225Z,11.70
2022-08-21T06:47:22.215Z,11.50
2022-08-21T06:48:22.225Z,11.60
2022-08-21T06:49:22.212Z,12.90
2022-08-21T06:50:22.196Z,11.60
2022-08-21T06:51:22.188Z,10.40
2022-08-21T06:52:22.188Z,10.30
2022-08-21T06:53:22.176Z,11.90
2022-08-21T06:54:22.182Z,12.00
2022-08-21T06:55:24.462Z,11.40
2022-08-21T06:56:22.160Z,11.80
2022-08-21T06:57:22.156Z,11.80
2022-08-21T06:58:22.151Z,12.60
2022-08-21T06:59:22.168Z,11.10
2022-08-21T07:00:22.138Z,11.70
2022-08-21T07:01:22.198Z,12.30
2022-08-21T07:02:22.112Z,12.50
2022-08-21T07:03:22.116Z,12.00
2022-08-21T07:04:22.123Z,11.80
2022-08-21T07:05:22.097Z,12.20
2022-08-21T07:06:22.092Z,12.20
2022-08-21T07:07:22.086Z,12.40
2022-08-21T07:08:22.082Z,10.90
2022-08-21T07:09:24.629Z,10.30
2022-08-21T07:10:23.081Z,10.90
2022-08-21T07:11:22.044Z,10.60
2022-08-21T07:12:22.040Z,10.30
2022-08-21T07:13:22.037Z,11.80
2022-08-21T07:14:22.029Z,10.90
2022-08-21T07:15:22.046Z,10.50
2022-08-21T07:16:22.028Z,11.00
2022-08-21T07:17:22.048Z,10.50
2022-08-21T07:18:22.004Z,10.10
2022-08-21T07:19:22.008Z,10.50
2022-08-21T07:20:22.025Z,9.90
2022-08-21T07:21:25.833Z,10.70
2022-08-21T07:22:22.988Z,10.30
2022-08-21T07:23:21.972Z,10.20
2022-08-21T07:24:21.960Z,9.90
2022-08-21T07:25:21.964Z,10.60
2022-08-21T07:26:21.976Z,9.30
2022-08-21T07:27:21.947Z,9.70
2022-08-21T07:28:22.947Z,9.90
2022-08-21T07:29:21.933Z,10.70
2022-08-21T07:30:21.940Z,11.30
2022-08-21T07:31:21.956Z,10.40
2022-08-21T07:32:21.920Z,9.90
2022-08-21T07:33:21.913Z,10.40
2022-08-21T07:34:21.901Z,10.10
2022-08-21T07:35:21.895Z,9.90
2022-08-21T07:36:21.900Z,9.90
2022-08-21T07:37:21.896Z,9.10
2022-08-21T07:38:21.882Z,9.30
2022-08-21T07:39:21.864Z,9.30
2022-08-21T07:40:21.919Z,8.40
2022-08-21T07:41:21.851Z,8.60
2022-08-21T07:42:21.856Z,8.60
2022-08-21T07:43:21.880Z,8.90
2022-08-21T07:44:21.828Z,9.00
2022-08-21T07:45:21.844Z,9.30
2022-08-21T07:46:21.844Z,8.50
2022-08-21T07:47:29.592Z,8.50
2022-08-21T07:48:23.813Z,8.60
2022-08-21T07:49:21.807Z,8.80
2022-08-21T07:50:21.860Z,9.00
2022-08-21T07:51:21.784Z,8.80
2022-08-21T07:52:21.780Z,9.20
2022-08-21T07:53:21.810Z,8.80
2022-08-21T07:54:29.728Z,8.70
2022-08-21T07:55:22.765Z,8.50
2022-08-21T07:56:21.772Z,8.20
2022-08-21T07:57:21.876Z,7.20
2022-08-21T07:58:21.752Z,6.70
2022-08-21T07:59:21.747Z,7.30
2022-08-21T08:00:21.826Z,7.00
2022-08-21T08:01:21.778Z,7.80
2022-08-21T08:02:21.740Z,6.60
2022-08-21T08:03:28.992Z,7.20
2022-08-21T08:04:26.368Z,7.50
2022-08-21T08:05:22.691Z,7.30
2022-08-21T08:06:21.688Z,7.40
2022-08-21T08:07:21.744Z,7.00
2022-08-21T08:08:21.668Z,7.50
2022-08-21T08:09:21.672Z,7.30
2022-08-21T08:10:21.781Z,7.80
2022-08-21T08:11:21.651Z,7.50
2022-08-21T08:12:21.644Z,6.90
2022-08-21T08:13:21.634Z,7.00
2022-08-21T08:14:21.654Z,7.70
2022-08-21T08:15:22.645Z,7.40
2022-08-21T08:16:21.619Z,7.40
2022-08-21T08:17:21.612Z,6.70
2022-08-21T08:18:21.611Z,7.60
2022-08-21T08:19:21.615Z,7.40
2022-08-21T08:20:21.620Z,6.80
2022-08-21T08:21:21.587Z,7.40
2022-08-21T08:22:21.583Z,6.70
2022-08-21T08:23:21.606Z,7.00
2022-08-21T08:24:21.572Z,6.80
2022-08-21T08:25:21.583Z,6.40
2022-08-21T08:26:21.565Z,5.80
2022-08-21T08:27:21.551Z,6.30
2022-08-21T08:28:21.554Z,5.60
2022-08-21T08:29:21.537Z,6.30
2022-08-21T08:30:21.527Z,6.30
2022-08-21T08:31:21.536Z,6.30
2022-08-21T08:32:21.519Z,6.50
2022-08-21T08:33:21.507Z,6.40
2022-08-21T08:34:25.464Z,6.50
2022-08-21T08:35:22.387Z,5.80
2022-08-21T08:36:21.495Z,6.10
2022-08-21T08:37:21.495Z,5.80
2022-08-21T08:38:24.475Z,5.70
2022-08-21T08:39:27.066Z,6.00
2022-08-21T08:40:22.516Z,6.40
2022-08-21T08:41:21.467Z,5.60
2022-08-21T08:42:32.903Z,5.50
2022-08-21T08:43:22.479Z,5.70
2022-08-21T08:44:21.455Z,5.50
2022-08-21T08:45:21.495Z,5.90
2022-08-21T08:46:21.436Z,5.80
2022-08-21T08:47:21.439Z,5.40
2022-08-21T08:48:21.421Z,5.10
2022-08-21T08:49:21.415Z,4.70
2022-08-21T08:50:21.423Z,4.90
2022-08-21T08:51:21.403Z,5.30
2022-08-21T08:52:21.408Z,5.30
2022-08-21T08:53:21.390Z,5.10
2022-08-21T08:54:21.388Z,4.50
2022-08-21T08:55:26.678Z,5.00
2022-08-21T08:56:23.391Z,5.30
2022-08-21T08:57:21.444Z,4.70
2022-08-21T08:58:21.364Z,4.80
2022-08-21T08:59:21.350Z,4.50
2022-08-21T09:00:21.352Z,4.60
2022-08-21T09:01:21.371Z,4.60
2022-08-21T09:02:21.328Z,4.70
2022-08-21T09:03:21.339Z,4.50
2022-08-21T09:04:21.328Z,4.30
2022-08-21T09:05:21.320Z,4.30
2022-08-21T09:06:21.316Z,4.10
2022-08-21T09:07:21.311Z,4.40
2022-08-21T09:08:21.299Z,4.50
2022-08-21T09:09:21.299Z,3.90
2022-08-21T09:10:21.290Z,4.10
2022-08-21T09:11:21.286Z,4.00
2022-08-21T09:12:21.278Z,4.50
2022-08-21T09:13:21.292Z,4.20
2022-08-21T09:14:21.259Z,4.20
2022-08-21T09:15:21.265Z,4.70
2022-08-21T09:16:21.256Z,4.50
2022-08-21T09:17:21.235Z,4.20
2022-08-21T09:18:21.248Z,4.90
2022-08-21T09:19:24.901Z,5.00
2022-08-21T09:20:21.237Z,4.30
2022-08-21T09:21:21.223Z,4.70
2022-08-21T09:22:21.213Z,4.50
2022-08-21T09:23:21.206Z,4.50
2022-08-21T09:24:21.207Z,4.70
2022-08-21T09:25:21.211Z,4.30
2022-08-21T09:26:21.195Z,4.60
2022-08-21T09:27:21.184Z,4.70
2022-08-21T09:28:21.179Z,4.40
2022-08-21T09:29:21.183Z,4.70
2022-08-21T09:30:21.179Z,4.70
2022-08-21T09:31:21.171Z,4.70
2022-08-21T09:32:21.159Z,4.50
2022-08-21T09:33:21.180Z,4.30
2022-08-21T09:34:21.154Z,4.80
2022-08-21T09:35:21.162Z,4.40
2022-08-21T09:36:21.142Z,4.50
2022-08-21T09:37:21.130Z,4.50
2022-08-21T09:38:21.165Z,4.80
2022-08-21T09:39:21.126Z,4.20
2022-08-21T09:40:21.184Z,4.50
2022-08-21T09:41:21.115Z,4.70
2022-08-21T09:42:21.118Z,4.60
2022-08-21T09:43:21.099Z,4.20
2022-08-21T09:44:21.095Z,4.60
2022-08-21T09:45:21.107Z,4.40
2022-08-21T09:46:21.099Z,4.10
2022-08-21T09:47:25.025Z,4.30
2022-08-21T09:48:22.087Z,4.20
2022-08-21T09:49:21.092Z,4.50
2022-08-21T09:50:21.070Z,4.10
2022-08-21T09:51:21.070Z,4.30
2022-08-21T09:52:21.075Z,4.60
2022-08-21T09:53:21.052Z,4.30
2022-08-21T09:54:21.043Z,4.10
2022-08-21T09:55:21.059Z,4.20
2022-08-21T09:56:21.534Z,4.60
2022-08-21T09:57:21.035Z,4.50
2022-08-21T09:58:21.034Z,4.20
2022-08-21T09:59:21.022Z,4.10
2022-08-21T10:00:21.029Z,4.10
2022-08-21T10:01:21.921Z,4.00
2022-08-21T10:02:21.016Z,4.30
2022-08-21T10:03:21.001Z,4.10
2022-08-21T10:04:21.002Z,4.30
2022-08-21T10:05:20.998Z,3.80
2022-08-21T10:06:20.994Z,4.60
2022-08-21T10:07:20.987Z,4.10
2022-08-21T10:08:20.990Z,4.00
2022-08-21T10:09:21.766Z,4.40
2022-08-21T10:10:21.963Z,4.20
2022-08-21T10:11:20.958Z,4.00
2022-08-21T10:12:20.962Z,4.50
2022-08-21T10:13:20.946Z,3.90
2022-08-21T10:14:20.946Z,4.00
2022-08-21T10:15:20.942Z,4.10
2022-08-21T10:16:20.934Z,4.10
2022-08-21T10:17:20.934Z,3.90
2022-08-21T10:18:20.926Z,4.10
2022-08-21T10:19:20.926Z,4.20
2022-08-21T10:20:20.912Z,4.30
2022-08-21T10:21:20.904Z,4.20
2022-08-21T10:22:20.890Z,4.30
2022-08-21T10:23:20.894Z,4.60
2022-08-21T10:24:31.163Z,4.40
2022-08-21T10:25:21.875Z,4.50
2022-08-21T10:26:20.878Z,4.00
2022-08-21T10:27:20.867Z,4.40
2022-08-21T10:28:20.854Z,4.20
2022-08-21T10:29:21.883Z,4.10
2022-08-21T10:30:20.857Z,4.00
2022-08-21T10:31:20.854Z,4.30
2022-08-21T10:32:25.950Z,4.40
2022-08-21T10:33:21.834Z,4.40
2022-08-21T10:34:20.840Z,3.80
2022-08-21T10:35:21.817Z,3.90
2022-08-21T10:36:20.830Z,4.00
2022-08-21T10:37:20.815Z,3.90
2022-08-21T10:38:46.250Z,4.00
2022-08-21T10:39:35.228Z,3.70
2022-08-21T10:40:22.864Z,3.80
2022-08-21T10:41:20.803Z,3.80
2022-08-21T10:42:24.783Z,3.70
2022-08-21T10:43:21.789Z,3.70
2022-08-21T10:44:20.794Z,3.70
2022-08-21T10:45:20.804Z,3.80
2022-08-21T10:46:20.786Z,3.70
2022-08-21T10:47:20.765Z,3.90
2022-08-21T10:48:20.778Z,3.90
2022-08-21T10:49:20.758Z,4.10
2022-08-21T10:50:20.758Z,3.80
2022-08-21T10:51:20.754Z,4.00
2022-08-21T10:52:21.751Z,3.60
2022-08-21T10:53:20.770Z,3.70
2022-08-21T10:54:23.467Z,3.50
2022-08-21T10:55:21.730Z,3.60
2022-08-21T10:56:20.721Z,3.80
2022-08-21T10:57:24.086Z,3.70
2022-08-21T10:58:21.722Z,3.80
2022-08-21T10:59:20.729Z,3.90
2022-08-21T11:00:20.706Z,3.70
2022-08-21T11:01:20.755Z,3.60
2022-08-21T11:02:20.694Z,3.60
2022-08-21T11:03:20.716Z,3.40
2022-08-21T11:04:20.681Z,3.00
2022-08-21T11:05:20.741Z,3.60
2022-08-21T11:06:20.678Z,3.70
2022-08-21T11:07:20.659Z,3.50
2022-08-21T11:08:20.697Z,3.40
2022-08-21T11:09:20.665Z,3.60
2022-08-21T11:10:20.662Z,3.50
2022-08-21T11:11:21.651Z,3.60
2022-08-21T11:12:20.678Z,3.30
2022-08-21T11:13:20.671Z,3.40
2022-08-21T11:14:21.641Z,3.50
2022-08-21T11:15:29.171Z,3.60
2022-08-21T11:16:20.614Z,3.70
2022-08-21T11:17:22.114Z,3.50
2022-08-21T11:18:21.613Z,3.60
2022-08-21T11:19:20.611Z,3.60
2022-08-21T11:20:20.593Z,3.70
2022-08-21T11:21:20.602Z,4.00
2022-08-21T11:22:20.598Z,3.40
2022-08-21T11:23:20.594Z,3.70
2022-08-21T11:24:20.589Z,3.20
2022-08-21T11:25:20.573Z,3.40
2022-08-21T11:26:20.570Z,3.40
2022-08-21T11:27:20.774Z,3.50
2022-08-21T11:28:20.566Z,3.50
2022-08-21T11:29:20.555Z,3.50
2022-08-21T11:30:20.562Z,3.70
2022-08-21T11:31:20.545Z,3.60
2022-08-21T11:32:20.541Z,3.20
2022-08-21T11:33:20.534Z,3.30
2022-08-21T11:34:20.529Z,3.40
2022-08-21T11:35:20.521Z,3.40
2022-08-21T11:36:20.517Z,3.40
2022-08-21T11:37:20.533Z,3.20
2022-08-21T11:38:20.509Z,3.30
2022-08-21T11:39:20.517Z,3.20
2022-08-21T11:40:20.607Z,3.40
2022-08-21T11:41:20.509Z,3.40
2022-08-21T11:42:20.508Z,3.30
2022-08-21T11:43:20.489Z,3.20
2022-08-21T11:44:20.534Z,3.40
2022-08-21T11:45:20.483Z,3.30
2022-08-21T11:46:20.474Z,3.30
2022-08-21T11:47:20.481Z,3.50
2022-08-21T11:48:20.457Z,3.40
2022-08-21T11:49:20.467Z,3.30
2022-08-21T11:50:35.244Z,3.80
2022-08-21T11:51:21.446Z,3.70
2022-08-21T11:52:20.451Z,3.80
2022-08-21T11:53:20.453Z,3.50
2022-08-21T11:54:20.417Z,3.20
2022-08-21T11:55:22.020Z,3.60
2022-08-21T11:56:20.416Z,3.50
2022-08-21T11:57:20.413Z,3.80
2022-08-21T11:58:20.421Z,3.50
2022-08-21T11:59:20.397Z,3.40
2022-08-21T12:00:20.393Z,3.30
2022-08-21T12:01:20.388Z,3.30
2022-08-21T12:02:20.402Z,3.70
2022-08-21T12:03:20.390Z,3.40
2022-08-21T12:04:20.384Z,3.40
2022-08-21T12:05:20.356Z,3.40
2022-08-21T12:06:24.051Z,3.30
2022-08-21T12:07:20.357Z,3.80
2022-08-21T12:08:20.349Z,3.60
2022-08-21T12:09:20.341Z,3.60
2022-08-21T12:10:20.340Z,3.30
2022-08-21T12:11:20.330Z,3.40
2022-08-21T12:12:20.317Z,3.40
2022-08-21T12:13:20.317Z,3.70
2022-08-21T12:14:20.311Z,3.60
2022-08-21T12:15:20.325Z,4.00
2022-08-21T12:16:20.293Z,3.50
2022-08-21T12:17:20.582Z,3.10
2022-08-21T12:18:21.278Z,3.50
2022-08-21T12:19:20.281Z,3.50
2022-08-21T12:20:20.280Z,3.60
2022-08-21T12:21:20.266Z,3.30
2022-08-21T12:22:20.277Z,3.30
2022-08-21T12:23:20.260Z,3.60
2022-08-21T12:24:20.249Z,3.60
2022-08-21T12:25:21.866Z,3.80
2022-08-21T12:26:21.245Z,3.50
2022-08-21T12:27:20.241Z,3.60
2022-08-21T12:28:20.229Z,3.40
2022-08-21T12:29:20.209Z,3.50
2022-08-21T12:30:20.209Z,3.40
2022-08-21T12:31:21.213Z,3.50
2022-08-21T12:32:20.196Z,3.50
2022-08-21T12:33:20.184Z,3.40
2022-08-21T12:34:20.185Z,3.60
2022-08-21T12:35:24.681Z,3.70
2022-08-21T12:36:21.198Z,3.50
2022-08-21T12:37:20.167Z,3.50
2022-08-21T12:38:20.165Z,3.40
2022-08-21T12:39:20.183Z,3.50
2022-08-21T12:40:20.238Z,3.20
2022-08-21T12:41:20.146Z,3.90
2022-08-21T12:42:20.150Z,3.20
2022-08-21T12:43:20.122Z,3.40
2022-08-21T12:44:20.124Z,3.50
2022-08-21T12:45:20.110Z,3.50
2022-08-21T12:46:20.099Z,3.60
2022-08-21T12:47:20.151Z,3.60
2022-08-21T12:48:20.102Z,3.10
2022-08-21T12:49:20.090Z,3.40
2022-08-21T12:50:20.082Z,3.10
2022-08-21T12:51:20.078Z,3.80
2022-08-21T12:52:20.094Z,3.20
2022-08-21T12:53:20.902Z,3.30
2022-08-21T12:54:20.059Z,3.40
2022-08-21T12:55:20.054Z,3.30
2022-08-21T12:56:20.054Z,3.40
2022-08-21T12:57:20.067Z,3.10
2022-08-21T12:58:20.038Z,3.30
2022-08-21T12:59:20.034Z,3.30
2022-08-21T13:00:20.071Z,3.50
2022-08-21T13:01:20.050Z,3.90
2022-08-21T13:02:20.027Z,3.40
2022-08-21T13:03:20.022Z,3.70
2022-08-21T13:04:20.011Z,3.10
2022-08-21T13:05:19.994Z,3.60
2022-08-21T13:06:19.990Z,3.30